Time;durP1;ratioP1;P1;durP2;ratioP2;P2;SDS_P1;SDS_P2;PMS_P1;PMS_P2;Temp;Humidity;BMP_temperature;BMP_pressure;BME280_temperature;BME280_humidity;BME280_pressure;Samples;Min_cycle;Max_cycle;Signal;HPM_P1;HPM_P2
2024/03/06 00:01:37;;;;;;;4.75;2.55;;;6.50;80.90;;;;;;5076124;28;20210;-67
2024/03/06 00:04:07;;;;;;;3.00;2.28;;;6.50;80.90;;;;;;5075577;28;20190;-67
2024/03/06 00:06:34;;;;;;;2.85;2.05;;;6.50;80.40;;;;;;5075816;28;20197;-67
2024/03/06 00:09:03;;;;;;;3.17;1.75;;;6.40;80.40;;;;;;5075869;28;20240;-67
2024/03/06 00:11:36;;;;;;;3.88;2.70;;;6.40;80.50;;;;;;5075799;28;20556;-67
2024/03/06 00:14:05;;;;;;;3.05;2.33;;;6.40;80.90;;;;;;5075418;28;20273;-67
2024/03/06 00:16:35;;;;;;;3.30;2.30;;;6.40;81.60;;;;;;5075604;28;20641;-67
2024/03/06 00:19:03;;;;;;;3.40;2.30;;;6.40;81.90;;;;;;5075938;28;20545;-67
2024/03/06 00:21:32;;;;;;;3.70;2.50;;;6.40;81.60;;;;;;5074993;28;20255;-67
2024/03/06 00:23:59;;;;;;;5.40;2.50;;;6.40;81.50;;;;;;5075562;28;20239;-67
2024/03/06 00:26:30;;;;;;;3.83;2.20;;;6.40;81.90;;;;;;5075620;28;20230;-67
2024/03/06 00:28:59;;;;;;;3.33;2.20;;;6.40;82.50;;;;;;5075749;28;20588;-67
2024/03/06 00:31:28;;;;;;;3.55;2.30;;;6.40;82.70;;;;;;5075137;28;20218;-67
2024/03/06 00:33:56;;;;;;;2.97;1.83;;;6.40;82.70;;;;;;5075543;28;20189;-67
2024/03/06 00:36:23;;;;;;;3.50;2.03;;;6.50;83.00;;;;;;5075042;28;20194;-67
2024/03/06 00:38:52;;;;;;;3.35;2.55;;;6.50;83.40;;;;;;5075675;28;20194;-67
2024/03/06 00:41:21;;;;;;;3.38;1.95;;;6.50;83.40;;;;;;5075406;28;20289;-67
2024/03/06 00:43:51;;;;;;;4.63;2.40;;;6.50;83.40;;;;;;5075169;28;20684;-67
2024/03/06 00:46:21;;;;;;;3.40;2.85;;;6.60;83.50;;;;;;5075084;28;20198;-67
2024/03/06 00:48:50;;;;;;;3.50;2.40;;;6.60;83.40;;;;;;5075034;28;20190;-67
2024/03/06 00:51:21;;;;;;;3.92;2.60;;;6.60;83.10;;;;;;5075066;28;20249;-67
2024/03/06 00:53:54;;;;;;;3.30;2.28;;;6.60;82.90;;;;;;5074953;28;20182;-67
2024/03/06 00:56:21;;;;;;;3.47;2.25;;;6.60;82.80;;;;;;5074705;28;20214;-67
2024/03/06 00:58:49;;;;;;;3.25;2.10;;;6.60;82.50;;;;;;5075011;28;20711;-67
2024/03/06 01:01:18;;;;;;;2.67;1.80;;;6.60;82.20;;;;;;5074492;28;20676;-67
2024/03/06 01:03:45;;;;;;;3.25;2.03;;;6.70;81.10;;;;;;5074469;28;20186;-67
2024/03/06 01:06:22;;;;;;;2.90;2.15;;;6.50;80.40;;;;;;5074337;28;20190;-67
2024/03/06 01:08:56;;;;;;;2.83;1.52;;;6.50;80.60;;;;;;5073761;28;20175;-67
2024/03/06 01:11:24;;;;;;;2.95;2.08;;;6.50;80.60;;;;;;5074444;28;20224;-67
2024/03/06 01:13:51;;;;;;;3.15;1.70;;;6.40;80.10;;;;;;5074462;28;20259;-67
2024/03/06 01:16:22;;;;;;;2.83;1.63;;;6.30;80.50;;;;;;5074419;28;20281;-67
2024/03/06 01:18:49;;;;;;;3.47;2.10;;;6.20;81.20;;;;;;5074465;28;20197;-67
2024/03/06 01:21:21;;;;;;;3.03;1.80;;;6.20;80.70;;;;;;5074488;28;20229;-67
2024/03/06 01:23:50;;;;;;;2.45;1.63;;;6.20;81.40;;;;;;5074187;28;20214;-67
2024/03/06 01:26:24;;;;;;;2.97;1.77;;;6.20;81.70;;;;;;5074037;28;20233;-67
2024/03/06 01:28:51;;;;;;;3.70;1.95;;;6.20;81.10;;;;;;5074037;28;20640;-67
2024/03/06 01:31:23;;;;;;;3.67;2.28;;;6.00;79.80;;;;;;5074120;28;20324;-67
2024/03/06 01:33:50;;;;;;;3.75;1.65;;;5.90;80.40;;;;;;5074357;28;20190;-67
2024/03/06 01:36:22;;;;;;;3.10;1.92;;;5.90;81.20;;;;;;5074223;28;20644;-67
2024/03/06 01:38:54;;;;;;;2.85;1.73;;;5.80;81.10;;;;;;5073829;28;20221;-67
2024/03/06 01:41:23;;;;;;;2.97;1.88;;;5.80;81.00;;;;;;5074239;28;20210;-67
2024/03/06 01:43:50;;;;;;;3.38;2.00;;;5.80;80.70;;;;;;5073760;28;20317;-67
2024/03/06 01:46:26;;;;;;;3.40;1.80;;;5.70;81.90;;;;;;5073843;28;20652;-67
2024/03/06 01:48:53;;;;;;;3.47;2.03;;;5.60;81.60;;;;;;5074006;28;20223;-67
2024/03/06 01:51:31;;;;;;;2.40;1.60;;;5.50;81.10;;;;;;5073571;28;20220;-67
2024/03/06 01:53:59;;;;;;;2.85;1.75;;;5.40;81.50;;;;;;5073932;28;20182;-67
2024/03/06 01:56:28;;;;;;;3.50;1.70;;;5.40;82.40;;;;;;5073898;28;20251;-67
2024/03/06 01:58:56;;;;;;;2.30;1.27;;;5.30;83.80;;;;;;5074136;28;20220;-67
2024/03/06 02:01:30;;;;;;;2.60;1.20;;;5.30;82.10;;;;;;5073529;28;20234;-67
2024/03/06 02:03:57;;;;;;;2.92;1.38;;;5.20;82.50;;;;;;5073478;28;20716;-67
2024/03/06 02:06:24;;;;;;;2.90;1.30;;;5.20;82.90;;;;;;5073812;28;20225;-67
2024/03/06 02:08:51;;;;;;;2.75;1.40;;;5.10;83.00;;;;;;5073815;28;20280;-67
2024/03/06 02:11:21;;;;;;;2.40;1.50;;;5.10;83.80;;;;;;5073572;28;20283;-67
2024/03/06 02:13:51;;;;;;;2.38;1.27;;;5.10;84.20;;;;;;5073878;28;20615;-67
2024/03/06 02:16:20;;;;;;;3.00;1.45;;;5.10;83.40;;;;;;5073630;28;20213;-67
2024/03/06 02:18:53;;;;;;;4.40;1.40;;;5.10;83.40;;;;;;5073580;28;20608;-67
2024/03/06 02:21:23;;;;;;;2.40;1.30;;;5.00;83.60;;;;;;5073261;28;20192;-67
2024/03/06 02:23:56;;;;;;;2.00;1.10;;;5.00;85.00;;;;;;5073509;28;20204;-67
2024/03/06 02:26:23;;;;;;;2.03;0.90;;;5.00;84.10;;;;;;5073391;28;20239;-67
2024/03/06 02:28:55;;;;;;;2.30;1.10;;;5.00;84.80;;;;;;5073593;28;20259;-67
2024/03/06 02:31:23;;;;;;;2.10;0.90;;;5.00;84.00;;;;;;5073099;28;20733;-67
2024/03/06 02:33:55;;;;;;;2.45;1.17;;;5.00;83.50;;;;;;5073162;28;20261;-67
2024/03/06 02:36:28;;;;;;;2.65;1.45;;;5.00;84.00;;;;;;5073602;28;20217;-67
2024/03/06 02:38:55;;;;;;;2.55;1.42;;;5.00;84.80;;;;;;5073414;28;20217;-67
2024/03/06 02:41:24;;;;;;;2.50;1.40;;;5.00;85.20;;;;;;5073532;28;20194;-67
2024/03/06 02:43:56;;;;;;;2.08;0.90;;;5.00;85.90;;;;;;5073232;28;20253;-67
2024/03/06 02:46:28;;;;;;;2.90;1.15;;;5.00;84.00;;;;;;5073433;28;20261;-67
2024/03/06 02:48:55;;;;;;;2.55;1.02;;;5.00;84.00;;;;;;5073383;28;20244;-67
2024/03/06 02:51:22;;;;;;;3.15;1.42;;;5.00;84.20;;;;;;5073219;28;20692;-67
2024/03/06 02:53:53;;;;;;;2.35;1.10;;;5.00;84.90;;;;;;5072877;28;20696;-67
2024/03/06 02:56:20;;;;;;;2.20;1.00;;;5.00;83.80;;;;;;5073398;28;20186;-67
2024/03/06 02:58:47;;;;;;;2.40;1.10;;;5.00;84.80;;;;;;5072805;28;20205;-67
2024/03/06 03:01:15;;;;;;;2.25;1.05;;;5.00;84.30;;;;;;5073370;28;20194;-67
2024/03/06 03:03:44;;;;;;;2.00;1.10;;;4.90;83.70;;;;;;5072873;28;20196;-67
2024/03/06 03:06:16;;;;;;;2.10;1.05;;;4.80;84.10;;;;;;5073232;28;20190;-67
2024/03/06 03:08:50;;;;;;;2.30;1.48;;;4.80;85.00;;;;;;5072864;28;20285;-67
2024/03/06 03:11:19;;;;;;;2.45;1.00;;;4.70;85.60;;;;;;5072881;28;20606;-67
2024/03/06 03:13:51;;;;;;;2.88;1.27;;;4.80;85.80;;;;;;5073127;28;20706;-67
2024/03/06 03:16:24;;;;;;;2.28;0.90;;;4.80;85.60;;;;;;5072851;28;20228;-67
2024/03/06 03:18:56;;;;;;;2.30;1.00;;;4.70;85.20;;;;;;5073020;28;20222;-67
2024/03/06 03:21:27;;;;;;;5.45;1.20;;;4.70;85.80;;;;;;5072758;28;20190;-67
2024/03/06 03:23:56;;;;;;;2.05;0.90;;;4.70;86.10;;;;;;5072759;28;20183;-67
2024/03/06 03:26:28;;;;;;;3.30;0.80;;;4.70;85.50;;;;;;5073187;28;20187;-67
2024/03/06 03:28:56;;;;;;;2.20;0.90;;;4.60;86.30;;;;;;5072909;28;20185;-67
2024/03/06 03:31:24;;;;;;;2.15;1.00;;;4.60;87.20;;;;;;5074543;28;20196;-67
2024/03/06 03:33:52;;;;;;;2.17;0.98;;;4.60;87.60;;;;;;5076439;28;20194;-67
2024/03/06 03:36:21;;;;;;;2.00;1.00;;;4.70;87.60;;;;;;5076114;28;20208;-67
2024/03/06 03:38:50;;;;;;;2.20;1.02;;;4.70;87.90;;;;;;5076408;28;20248;-67
2024/03/06 03:41:18;;;;;;;1.90;0.90;;;4.70;88.20;;;;;;5076322;28;20233;-67
2024/03/06 03:43:50;;;;;;;2.60;1.15;;;4.80;88.20;;;;;;5076008;28;20271;-67
2024/03/06 03:46:19;;;;;;;3.03;0.90;;;4.90;87.10;;;;;;5076449;28;20208;-67
2024/03/06 03:48:49;;;;;;;1.73;0.70;;;4.90;87.10;;;;;;5076288;28;20526;-67
2024/03/06 03:51:19;;;;;;;2.45;1.02;;;4.80;86.90;;;;;;5075880;28;20679;-67
2024/03/06 03:53:50;;;;;;;2.08;1.02;;;4.80;87.20;;;;;;5076070;28;20190;-67
2024/03/06 03:56:20;;;;;;;2.65;1.23;;;4.90;87.70;;;;;;5076378;28;20190;-67
2024/03/06 03:58:52;;;;;;;2.10;0.90;;;4.90;88.10;;;;;;5076089;28;20194;-67
2024/03/06 04:01:24;;;;;;;2.05;0.80;;;4.90;88.00;;;;;;5076257;28;20255;-67
2024/03/06 04:03:56;;;;;;;2.15;0.98;;;5.00;87.30;;;;;;5075794;28;20218;-67
2024/03/06 04:06:23;;;;;;;2.97;1.13;;;5.00;87.70;;;;;;5076089;28;20210;-67
2024/03/06 04:08:50;;;;;;;2.38;1.00;;;5.00;87.40;;;;;;5075884;28;20223;-67
2024/03/06 04:11:18;;;;;;;2.10;1.13;;;5.00;87.30;;;;;;5075737;28;20216;-67
2024/03/06 04:13:46;;;;;;;2.20;1.23;;;5.00;87.00;;;;;;5075495;28;20190;-67
2024/03/06 04:16:18;;;;;;;2.50;1.30;;;5.10;86.90;;;;;;5075767;28;20201;-67
2024/03/06 04:18:46;;;;;;;2.30;1.17;;;5.00;86.80;;;;;;5075758;28;20197;-67
2024/03/06 04:21:16;;;;;;;2.22;0.90;;;5.10;87.60;;;;;;5075411;28;20281;-67
2024/03/06 04:23:45;;;;;;;2.42;0.90;;;5.10;87.50;;;;;;5075714;28;20267;-67
2024/03/06 04:26:14;;;;;;;1.90;0.90;;;5.20;88.00;;;;;;5075276;28;20190;-67
2024/03/06 04:28:47;;;;;;;2.65;0.88;;;5.20;87.10;;;;;;5075552;28;20194;-67
2024/03/06 04:31:14;;;;;;;1.73;0.70;;;5.30;87.30;;;;;;5073947;28;20186;-67
2024/03/06 04:33:42;;;;;;;1.95;1.00;;;5.30;87.20;;;;;;5075132;28;20741;-67
2024/03/06 04:36:11;;;;;;;1.90;0.80;;;5.30;87.30;;;;;;5075357;28;20555;-67
2024/03/06 04:38:38;;;;;;;1.90;0.80;;;5.40;86.40;;;;;;5075262;28;20230;-67
2024/03/06 04:41:10;;;;;;;2.10;1.02;;;5.40;85.80;;;;;;5075415;28;20194;-67
2024/03/06 04:43:39;;;;;;;2.75;1.00;;;5.40;86.20;;;;;;5073831;28;20222;-67
2024/03/06 04:46:14;;;;;;;2.67;1.08;;;5.40;86.30;;;;;;5074812;28;20239;-67
2024/03/06 04:48:42;;;;;;;2.50;1.17;;;5.40;86.00;;;;;;5075167;28;20186;-67
2024/03/06 04:51:10;;;;;;;2.10;0.95;;;5.40;85.60;;;;;;5074872;28;20244;-67
2024/03/06 04:53:42;;;;;;;2.40;1.20;;;5.30;85.50;;;;;;5075011;28;20236;-67
2024/03/06 04:56:12;;;;;;;2.25;1.02;;;5.30;85.50;;;;;;5074969;28;20186;-67
2024/03/06 04:58:44;;;;;;;2.33;0.80;;;5.30;85.80;;;;;;5074674;28;20269;-67
2024/03/06 05:01:13;;;;;;;1.80;0.75;;;5.30;86.40;;;;;;5074469;28;20631;-67
2024/03/06 05:03:41;;;;;;;2.20;0.90;;;5.40;86.70;;;;;;5074590;28;20649;-67
2024/03/06 05:06:08;;;;;;;2.03;0.70;;;5.40;86.40;;;;;;5074736;28;20591;-67
2024/03/06 05:08:35;;;;;;;2.90;1.10;;;5.40;85.00;;;;;;5074128;28;20240;-68
2024/03/06 05:11:03;;;;;;;2.20;1.00;;;5.30;84.70;;;;;;5087010;28;20231;-67
2024/03/06 05:13:34;;;;;;;2.88;1.42;;;5.30;84.80;;;;;;5094878;28;20291;-67
2024/03/06 05:16:03;;;;;;;2.13;1.00;;;5.30;85.20;;;;;;5081247;28;20190;-67
2024/03/06 05:18:35;;;;;;;2.00;0.85;;;5.20;85.00;;;;;;5073582;28;20522;-67
2024/03/06 05:21:02;;;;;;;2.50;1.13;;;5.10;85.80;;;;;;5073546;28;20179;-67
2024/03/06 05:23:34;;;;;;;2.28;1.20;;;5.10;85.70;;;;;;5077502;28;20601;-67
2024/03/06 05:26:04;;;;;;;1.90;0.85;;;5.00;86.00;;;;;;5094210;28;20234;-67
2024/03/06 05:28:31;;;;;;;2.00;0.90;;;5.00;86.50;;;;;;5094321;28;20197;-67
2024/03/06 05:31:01;;;;;;;2.10;1.00;;;4.90;86.60;;;;;;5094314;28;20190;-67
2024/03/06 05:33:36;;;;;;;2.53;1.13;;;4.90;87.00;;;;;;5093599;28;20240;-67
2024/03/06 05:36:04;;;;;;;1.80;0.70;;;4.90;87.30;;;;;;5076690;28;20178;-67
2024/03/06 05:38:31;;;;;;;1.90;0.82;;;4.90;87.20;;;;;;5078569;28;20196;-67
2024/03/06 05:40:58;;;;;;;2.28;1.05;;;4.90;87.00;;;;;;5093407;28;20705;-67
2024/03/06 05:43:31;;;;;;;1.90;0.75;;;4.90;87.90;;;;;;5093911;28;20260;-67
2024/03/06 05:46:01;;;;;;;1.83;0.73;;;4.90;88.70;;;;;;5094489;28;20235;-67
2024/03/06 05:48:34;;;;;;;2.20;0.82;;;4.90;88.70;;;;;;5093622;28;20288;-67
2024/03/06 05:51:03;;;;;;;5.30;1.20;;;5.00;88.70;;;;;;5092913;28;20188;-67
2024/03/06 05:53:36;;;;;;;4.22;1.45;;;5.00;87.90;;;;;;5073082;28;20213;-67
2024/03/06 05:56:05;;;;;;;2.45;1.10;;;5.00;88.50;;;;;;5073620;28;20224;-69
2024/03/06 05:58:32;;;;;;;2.10;0.98;;;5.10;89.00;;;;;;5073308;28;20178;-67
2024/03/06 06:00:59;;;;;;;1.90;0.80;;;5.10;88.90;;;;;;5073561;28;20213;-67
2024/03/06 06:03:28;;;;;;;2.35;1.25;;;5.10;89.40;;;;;;5072935;28;20282;-67
2024/03/06 06:05:56;;;;;;;1.90;1.00;;;5.20;89.50;;;;;;5075851;28;20304;-67
2024/03/06 06:08:24;;;;;;;18.88;10.63;;;5.30;89.70;;;;;;5078132;28;20652;-67
2024/03/06 06:10:54;;;;;;;3.47;2.17;;;5.30;88.90;;;;;;5093435;28;20197;-67
2024/03/06 06:13:22;;;;;;;2.47;1.38;;;5.30;88.80;;;;;;5092808;28;20262;-67
2024/03/06 06:15:49;;;;;;;2.40;1.20;;;5.40;87.90;;;;;;5074129;28;20604;-68
2024/03/06 06:18:16;;;;;;;2.90;1.60;;;5.40;88.20;;;;;;5073551;28;20274;-67
2024/03/06 06:20:43;;;;;;;3.80;1.80;;;5.50;88.30;;;;;;5073436;28;20285;-67
2024/03/06 06:23:10;;;;;;;2.28;1.25;;;5.40;88.20;;;;;;5073215;28;20282;-67
2024/03/06 06:25:38;;;;;;;3.40;1.40;;;5.50;88.40;;;;;;5073877;28;20632;-67
2024/03/06 06:28:05;;;;;;;2.90;1.30;;;5.40;88.10;;;;;;5073198;28;20229;-67
2024/03/06 06:30:33;;;;;;;4.32;1.90;;;5.50;88.10;;;;;;5073028;28;20232;-67
2024/03/06 06:33:00;;;;;;;148.30;64.15;;;5.50;88.10;;;;;;5073119;28;20275;-67
2024/03/06 06:35:27;;;;;;;133.13;60.55;;;5.50;86.90;;;;;;5073188;28;20240;-67
2024/03/06 06:37:54;;;;;;;146.68;69.22;;;5.50;87.30;;;;;;5073539;28;20251;-67
2024/03/06 06:40:21;;;;;;;53.10;28.35;;;5.50;87.40;;;;;;5073097;28;20189;-67
2024/03/06 06:42:50;;;;;;;25.10;14.20;;;5.60;87.00;;;;;;5072830;28;20222;-67
2024/03/06 06:45:17;;;;;;;5.43;2.58;;;5.50;87.00;;;;;;5080596;28;20216;-67
2024/03/06 06:47:44;;;;;;;19.95;9.75;;;5.50;86.40;;;;;;5092764;28;20238;-67
2024/03/06 06:50:23;;;;;;;35.28;19.02;;;5.40;86.30;;;;;;5092716;28;20659;-67
2024/03/06 06:52:50;;;;;;;54.25;27.83;;;5.40;87.00;;;;;;5065453;28;20664;-67
2024/03/06 06:55:22;;;;;;;59.42;23.48;;;5.30;87.60;;;;;;5093141;28;20605;-67
2024/03/06 06:57:51;;;;;;;52.15;25.27;;;5.30;87.60;;;;;;5093186;28;20177;-67
2024/03/06 07:00:21;;;;;;;82.10;41.75;;;5.30;87.60;;;;;;5093218;28;20189;-67
2024/03/06 07:02:48;;;;;;;46.30;22.58;;;5.30;88.10;;;;;;5092988;28;20181;-68
2024/03/06 07:05:16;;;;;;;5.95;3.80;;;5.40;88.10;;;;;;5092842;28;20221;-67
2024/03/06 07:07:43;;;;;;;14.20;8.98;;;5.40;88.30;;;;;;5096970;28;20189;-67
2024/03/06 07:10:10;;;;;;;11.90;6.88;;;5.40;87.90;;;;;;5097111;28;20197;-67
2024/03/06 07:12:37;;;;;;;6.22;4.03;;;5.40;88.40;;;;;;5096909;28;20302;-68
2024/03/06 07:15:09;;;;;;;3.55;2.00;;;5.40;87.80;;;;;;5096552;28;20239;-68
2024/03/06 07:17:36;;;;;;;18.35;9.90;;;5.40;88.30;;;;;;5096629;28;20264;-67
2024/03/06 07:20:08;;;;;;;8.55;5.53;;;5.50;88.10;;;;;;5096798;28;20189;-68
2024/03/06 07:22:35;;;;;;;12.13;7.03;;;5.50;87.40;;;;;;5096442;28;20178;-67
2024/03/06 07:25:02;;;;;;;6.68;3.30;;;5.50;86.60;;;;;;5096755;28;20534;-67
2024/03/06 07:27:29;;;;;;;5.25;2.80;;;5.50;86.40;;;;;;5096800;28;20582;-67
2024/03/06 07:29:56;;;;;;;5.03;3.22;;;5.40;87.20;;;;;;5096432;28;20652;-67
2024/03/06 07:32:25;;;;;;;8.55;4.40;;;5.40;88.30;;;;;;5096198;28;20225;-67
2024/03/06 07:34:52;;;;;;;8.73;5.35;;;5.50;87.80;;;;;;5096272;28;20189;-67
2024/03/06 07:37:19;;;;;;;10.20;6.90;;;5.50;86.60;;;;;;5096322;28;20724;-67
2024/03/06 07:39:46;;;;;;;19.17;10.60;;;5.40;87.20;;;;;;5096515;28;20189;-68
2024/03/06 07:42:17;;;;;;;7.38;4.30;;;5.40;88.00;;;;;;5096316;28;20267;-67
2024/03/06 07:44:44;;;;;;;12.45;8.98;;;5.40;88.40;;;;;;5096457;28;20181;-67
2024/03/06 07:47:12;;;;;;;7.28;5.43;;;5.50;88.30;;;;;;5096029;28;20251;-68
2024/03/06 07:49:46;;;;;;;10.20;6.85;;;5.50;88.30;;;;;;5096222;28;20614;-68
2024/03/06 07:52:12;;;;;;;23.58;12.50;;;5.50;87.50;;;;;;5096422;28;20633;-68
2024/03/06 07:54:40;;;;;;;20.88;11.52;;;5.40;88.70;;;;;;5096107;28;20218;-67
2024/03/06 07:57:09;;;;;;;20.42;10.82;;;5.50;88.00;;;;;;5096194;28;20198;-68
2024/03/06 07:59:36;;;;;;;14.05;9.88;;;5.50;88.20;;;;;;5096161;28;20221;-67
2024/03/06 08:02:04;;;;;;;12.38;8.95;;;5.50;89.00;;;;;;5096225;28;20201;-68
2024/03/06 08:04:38;;;;;;;6.53;3.60;;;5.50;89.50;;;;;;5096053;28;20216;-67
2024/03/06 08:07:07;;;;;;;3.83;2.38;;;5.60;89.40;;;;;;5096079;28;20177;-67
2024/03/06 08:09:34;;;;;;;5.53;2.80;;;5.70;89.80;;;;;;5096112;28;20193;-67
2024/03/06 08:12:04;;;;;;;3.47;2.30;;;5.70;90.10;;;;;;5096046;28;20266;-67
2024/03/06 08:14:35;;;;;;;6.90;4.43;;;5.70;89.90;;;;;;5095467;28;20216;-68
2024/03/06 08:17:02;;;;;;;4.85;3.33;;;5.70;89.80;;;;;;5095554;28;20184;-67
2024/03/06 08:19:29;;;;;;;6.25;4.47;;;5.70;89.70;;;;;;5095569;28;20197;-68
2024/03/06 08:21:56;;;;;;;6.18;3.35;;;5.80;90.20;;;;;;5095876;28;20193;-68
2024/03/06 08:24:25;;;;;;;2.55;1.30;;;5.90;90.20;;;;;;5095722;28;20225;-68
2024/03/06 08:26:52;;;;;;;4.78;2.20;;;5.90;89.30;;;;;;5095582;28;20238;-67
2024/03/06 08:29:19;;;;;;;6.20;4.85;;;5.80;89.60;;;;;;5095563;28;20190;-68
2024/03/06 08:31:46;;;;;;;4.85;3.03;;;5.80;90.30;;;;;;5095555;28;20189;-66
2024/03/06 08:34:22;;;;;;;5.55;4.68;;;5.90;90.10;;;;;;5095099;28;20312;-66
2024/03/06 08:36:49;;;;;;;2.97;2.22;;;5.90;89.90;;;;;;5095660;28;20208;-66
2024/03/06 08:39:16;;;;;;;3.45;2.03;;;5.90;90.10;;;;;;5095003;28;20225;-66
2024/03/06 08:41:45;;;;;;;2.20;1.30;;;6.00;89.60;;;;;;5094970;28;20205;-66
2024/03/06 08:44:12;;;;;;;2.45;1.10;;;6.00;89.30;;;;;;5095630;28;20289;-66
2024/03/06 08:46:39;;;;;;;2.75;1.30;;;6.00;90.00;;;;;;5095845;28;20196;-66
2024/03/06 08:49:06;;;;;;;3.25;2.03;;;6.00;89.80;;;;;;5095216;28;20193;-66
2024/03/06 08:51:33;;;;;;;4.25;2.15;;;6.10;88.50;;;;;;5096659;28;20193;-66
2024/03/06 08:54:02;;;;;;;4.72;2.70;;;6.10;88.90;;;;;;5095405;28;20365;-66
2024/03/06 08:56:29;;;;;;;12.38;8.00;;;6.10;89.40;;;;;;5095347;28;20212;-66
2024/03/06 08:59:07;;;;;;;4.10;2.90;;;6.10;88.30;;;;;;5094760;28;20221;-66
2024/03/06 09:01:34;;;;;;;2.88;1.95;;;6.10;88.10;;;;;;5095590;28;20193;-66
2024/03/06 09:04:01;;;;;;;3.60;2.58;;;6.10;87.60;;;;;;5094848;28;20202;-66
2024/03/06 09:06:29;;;;;;;5.18;4.15;;;6.10;86.90;;;;;;5094837;28;20189;-66
2024/03/06 09:08:56;;;;;;;3.72;2.30;;;6.10;87.50;;;;;;5094505;28;20193;-66
2024/03/06 09:11:23;;;;;;;5.70;3.28;;;6.20;88.60;;;;;;5094703;28;20185;-66
2024/03/06 09:13:50;;;;;;;4.25;2.50;;;6.20;88.60;;;;;;5094481;28;20274;-66
2024/03/06 09:16:19;;;;;;;3.28;1.90;;;6.20;88.60;;;;;;5094652;28;20254;-66
2024/03/06 09:18:46;;;;;;;5.28;2.17;;;6.30;89.10;;;;;;5094276;28;20194;-66
2024/03/06 09:21:13;;;;;;;4.35;2.45;;;6.40;89.50;;;;;;5094305;28;20225;-66
2024/03/06 09:23:40;;;;;;;3.45;1.65;;;6.40;89.50;;;;;;5094478;28;20254;-66
2024/03/06 09:26:06;;;;;;;6.03;2.25;;;6.50;89.60;;;;;;5094169;28;20225;-66
2024/03/06 09:28:34;;;;;;;3.40;1.65;;;6.50;88.70;;;;;;5093872;28;20293;-66
2024/03/06 09:31:01;;;;;;;3.70;1.50;;;6.60;87.70;;;;;;5094026;28;20189;-66
2024/03/06 09:33:29;;;;;;;3.70;1.38;;;6.60;88.00;;;;;;5093938;28;20213;-66
2024/03/06 09:35:57;;;;;;;2.75;1.40;;;6.60;88.30;;;;;;5093977;28;20235;-66
2024/03/06 09:38:24;;;;;;;2.70;1.40;;;6.60;86.90;;;;;;5093897;28;20185;-65
2024/03/06 09:40:52;;;;;;;3.38;1.63;;;6.60;86.40;;;;;;5094306;28;20280;-66
2024/03/06 09:43:19;;;;;;;2.00;1.00;;;6.60;86.80;;;;;;5093813;28;20312;-66
2024/03/06 09:45:49;;;;;;;3.00;1.98;;;6.70;87.50;;;;;;5093813;28;20686;-66
2024/03/06 09:48:19;;;;;;;2.63;1.00;;;6.70;87.30;;;;;;5094319;28;20200;-66
2024/03/06 09:50:52;;;;;;;2.35;0.90;;;6.80;86.70;;;;;;5094127;28;20311;-67
2024/03/06 09:53:22;;;;;;;6.43;3.00;;;6.80;86.30;;;;;;5094011;28;20210;-66
2024/03/06 09:55:50;;;;;;;13.32;8.60;;;6.90;85.80;;;;;;5093645;28;20238;-66
2024/03/06 09:58:17;;;;;;;5.93;3.55;;;6.90;85.00;;;;;;5093575;28;20225;-66
2024/03/06 10:00:46;;;;;;;2.80;1.38;;;6.80;84.30;;;;;;5093512;28;20671;-66
2024/03/06 10:03:14;;;;;;;4.75;2.50;;;6.80;83.90;;;;;;5093893;28;20189;-66
2024/03/06 10:05:43;;;;;;;6.82;2.83;;;6.90;84.10;;;;;;5093767;28;20202;-66
2024/03/06 10:08:11;;;;;;;7.07;4.35;;;6.90;84.30;;;;;;5093685;28;20243;-66
2024/03/06 10:10:38;;;;;;;3.17;1.73;;;6.80;84.80;;;;;;5094225;28;20193;-66
2024/03/06 10:13:07;;;;;;;3.38;1.20;;;6.90;86.00;;;;;;5093769;28;20232;-66
2024/03/06 10:15:36;;;;;;;3.20;1.25;;;6.90;86.20;;;;;;5093564;28;20213;-66
2024/03/06 10:18:13;;;;;;;3.45;1.17;;;6.90;84.30;;;;;;5093412;28;20193;-66
2024/03/06 10:20:40;;;;;;;2.08;1.17;;;6.90;85.00;;;;;;5093334;28;20193;-66
2024/03/06 10:23:08;;;;;;;15.40;8.00;;;6.80;84.70;;;;;;5093215;28;20186;-66
2024/03/06 10:25:37;;;;;;;5.28;4.07;;;6.90;83.70;;;;;;5093291;28;20200;-66
2024/03/06 10:28:06;;;;;;;7.15;3.10;;;6.90;83.20;;;;;;5093624;28;20246;-67
2024/03/06 10:30:35;;;;;;;5.00;3.50;;;6.90;83.50;;;;;;5093137;28;20215;-66
2024/03/06 10:33:03;;;;;;;4.13;2.92;;;6.80;84.20;;;;;;5093199;28;20197;-66
2024/03/06 10:35:30;;;;;;;2.95;1.50;;;6.90;84.60;;;;;;5093408;28;20248;-66
2024/03/06 10:38:00;;;;;;;3.25;2.05;;;6.90;83.20;;;;;;5093499;28;20220;-66
2024/03/06 10:40:30;;;;;;;3.15;2.17;;;6.90;84.00;;;;;;5093883;28;20189;-66
2024/03/06 10:42:59;;;;;;;3.30;1.73;;;6.90;84.90;;;;;;5097537;28;20642;-66
2024/03/06 10:45:41;;;;;;;3.00;1.77;;;6.90;85.10;;;;;;5097228;28;20219;-66
2024/03/06 10:48:11;;;;;;;12.32;5.20;;;6.90;84.50;;;;;;5097489;28;20177;-66
2024/03/06 10:50:39;;;;;;;5.93;3.45;;;6.90;80.90;;;;;;5097102;28;20242;-67
2024/03/06 10:53:10;;;;;;;4.93;2.33;;;6.80;81.90;;;;;;5097391;28;20190;-66
2024/03/06 10:55:37;;;;;;;2.67;1.10;;;6.80;83.20;;;;;;5097149;28;20202;-66
2024/03/06 10:58:09;;;;;;;2.20;1.08;;;6.80;84.10;;;;;;5097360;28;20341;-66
2024/03/06 11:00:38;;;;;;;2.17;1.10;;;6.80;85.00;;;;;;5097224;28;20719;-66
2024/03/06 11:03:07;;;;;;;2.50;1.10;;;6.90;83.30;;;;;;5097425;28;20198;-66
2024/03/06 11:05:39;;;;;;;1.80;0.80;;;6.90;83.50;;;;;;5097020;28;20193;-66
2024/03/06 11:08:07;;;;;;;2.78;1.45;;;6.90;84.10;;;;;;5097165;28;20184;-66
2024/03/06 11:10:35;;;;;;;3.13;1.73;;;6.90;83.00;;;;;;5097077;28;20276;-66
2024/03/06 11:13:04;;;;;;;2.40;1.25;;;6.80;82.60;;;;;;5096729;28;20697;-66
2024/03/06 11:15:32;;;;;;;4.00;1.98;;;6.90;82.80;;;;;;5096556;28;20227;-66
2024/03/06 11:17:59;;;;;;;2.45;1.15;;;6.80;83.50;;;;;;5096989;28;20546;-66
2024/03/06 11:20:34;;;;;;;8.13;3.00;;;6.80;82.90;;;;;;5096903;28;20542;-66
2024/03/06 11:23:08;;;;;;;3.03;1.40;;;6.80;83.10;;;;;;5097136;28;20263;-70
2024/03/06 11:26:08;;;;;;;3.25;2.00;;;6.80;82.60;;;;;;5096772;28;20193;-66
2024/03/06 11:28:37;;;;;;;3.45;1.90;;;6.90;82.80;;;;;;5097074;28;20242;-66
2024/03/06 11:31:09;;;;;;;3.80;2.42;;;6.90;83.20;;;;;;5096706;28;20221;-66
2024/03/06 11:33:37;;;;;;;3.90;2.42;;;6.90;82.10;;;;;;5096823;28;20215;-66
2024/03/06 11:36:21;;;;;;;11.48;7.55;;;6.90;82.50;;;;;;5096327;28;20185;-67
2024/03/06 11:38:52;;;;;;;12.52;7.35;;;6.90;83.00;;;;;;5096949;28;20271;-66
2024/03/06 11:41:20;;;;;;;4.35;2.75;;;7.00;82.20;;;;;;5096628;28;20188;-66
2024/03/06 11:43:52;;;;;;;7.82;4.45;;;7.00;82.40;;;;;;5096093;28;20218;-66
2024/03/06 11:46:22;;;;;;;8.45;6.10;;;6.90;82.80;;;;;;5096465;28;20178;-66
2024/03/06 11:48:54;;;;;;;3.13;1.50;;;6.90;83.70;;;;;;5096412;28;20217;-66
2024/03/06 11:51:22;;;;;;;3.22;1.30;;;7.00;84.20;;;;;;5096009;28;20258;-66
2024/03/06 11:53:53;;;;;;;4.93;1.65;;;7.00;84.50;;;;;;5096273;28;20186;-66
2024/03/06 11:56:21;;;;;;;3.83;1.98;;;7.00;84.00;;;;;;5096301;28;20185;-66
2024/03/06 11:58:48;;;;;;;7.60;5.07;;;7.10;84.80;;;;;;5095868;28;20678;-66
2024/03/06 12:01:18;;;;;;;2.88;1.60;;;7.10;84.90;;;;;;5096119;28;20221;-66
2024/03/06 12:03:48;;;;;;;3.92;3.08;;;7.20;85.00;;;;;;5096221;28;20208;-69
2024/03/06 12:06:16;;;;;;;4.18;1.70;;;7.30;84.80;;;;;;5096180;28;20217;-67
2024/03/06 12:08:43;;;;;;;2.17;0.95;;;7.30;83.10;;;;;;5095634;28;20284;-66
2024/03/06 12:11:10;;;;;;;1.70;0.60;;;7.30;82.50;;;;;;5095640;28;20190;-66
2024/03/06 12:13:37;;;;;;;2.00;0.82;;;7.30;82.20;;;;;;5095958;28;20193;-66
2024/03/06 12:16:08;;;;;;;2.35;1.08;;;7.30;82.40;;;;;;5095503;28;20312;-66
2024/03/06 12:18:35;;;;;;;2.45;1.13;;;7.30;83.00;;;;;;5095611;28;20670;-66
2024/03/06 12:21:06;;;;;;;3.17;1.80;;;7.40;83.60;;;;;;5096890;28;20594;-67
2024/03/06 12:23:33;;;;;;;2.65;1.60;;;7.40;82.40;;;;;;5095555;28;20219;-66
2024/03/06 12:26:07;;;;;;;5.25;2.35;;;7.40;81.60;;;;;;5095628;28;20193;-66
2024/03/06 12:28:35;;;;;;;3.55;1.38;;;7.40;81.50;;;;;;5095272;28;20189;-67
2024/03/06 12:31:04;;;;;;;10.00;4.68;;;7.40;81.50;;;;;;5095189;28;20232;-67
2024/03/06 12:33:36;;;;;;;8.65;3.60;;;7.40;80.80;;;;;;5095182;28;20190;-67
2024/03/06 12:36:10;;;;;;;4.70;2.80;;;7.40;80.80;;;;;;5099603;28;20208;-67
2024/03/06 12:38:38;;;;;;;2.40;1.50;;;7.40;81.50;;;;;;5095253;28;20578;-67
2024/03/06 12:41:05;;;;;;;4.50;2.60;;;7.40;81.20;;;;;;5095274;28;20194;-67
2024/03/06 12:43:34;;;;;;;3.10;1.20;;;7.40;80.90;;;;;;5095194;28;20228;-67
2024/03/06 12:46:02;;;;;;;2.13;1.00;;;7.40;81.20;;;;;;5095258;28;20198;-67
2024/03/06 12:48:30;;;;;;;2.25;1.02;;;7.40;81.60;;;;;;5095371;28;20193;-67
2024/03/06 12:51:04;;;;;;;2.00;1.00;;;7.40;81.60;;;;;;5095216;28;20296;-66
2024/03/06 12:53:34;;;;;;;2.13;1.00;;;7.50;82.20;;;;;;5094908;28;20213;-67
2024/03/06 12:56:01;;;;;;;2.20;0.90;;;7.50;82.00;;;;;;5094684;28;20213;-68
2024/03/06 12:58:31;;;;;;;4.18;1.67;;;7.50;83.00;;;;;;5095248;28;20247;-68
2024/03/06 13:00:58;;;;;;;1.90;0.85;;;7.50;83.00;;;;;;5094750;28;20281;-67
2024/03/06 13:03:25;;;;;;;1.92;0.93;;;7.50;83.10;;;;;;5093686;28;20212;-67
2024/03/06 13:05:52;;;;;;;2.20;0.80;;;7.50;83.20;;;;;;5094956;28;20228;-67